sensor_id;sensor_type;location;lat;lon;timestamp;pressure;altitude;pressure_sealevel;temperature;humidity
9538;BME280;4807;48.024;11.726;2023-03-04T00:01:20;95311.50;;;-0.58;87.92
9538;BME280;4807;48.024;11.726;2023-03-04T00:04:29;95302.22;;;-0.62;87.32
9538;BME280;4807;48.024;11.726;2023-03-04T00:07:37;95310.19;;;-0.64;87.28
9538;BME280;4807;48.024;11.726;2023-03-04T00:10:45;95305.94;;;-0.65;86.80
9538;BME280;4807;48.024;11.726;2023-03-04T00:13:55;95302.00;;;-0.70;87.15
9538;BME280;4807;48.024;11.726;2023-03-04T00:17:04;95304.91;;;-0.73;87.54
9538;BME280;4807;48.024;11.726;2023-03-04T00:20:13;95307.34;;;-0.72;87.00
9538;BME280;4807;48.024;11.726;2023-03-04T00:23:21;95313.69;;;-0.74;88.21
9538;BME280;4807;48.024;11.726;2023-03-04T00:26:30;95314.97;;;-0.69;87.72
9538;BME280;4807;48.024;11.726;2023-03-04T00:29:40;95310.56;;;-0.68;87.87
9538;BME280;4807;48.024;11.726;2023-03-04T00:32:48;95311.06;;;-0.74;87.13
9538;BME280;4807;48.024;11.726;2023-03-04T00:35:57;95311.06;;;-0.74;87.50
9538;BME280;4807;48.024;11.726;2023-03-04T00:39:05;95313.69;;;-0.74;87.82
9538;BME280;4807;48.024;11.726;2023-03-04T00:42:14;95316.88;;;-0.71;87.82
9538;BME280;4807;48.024;11.726;2023-03-04T00:45:23;95319.69;;;-0.63;87.73
9538;BME280;4807;48.024;11.726;2023-03-04T00:48:32;95325.72;;;-0.51;87.95
9538;BME280;4807;48.024;11.726;2023-03-04T00:51:40;95313.38;;;-0.28;87.80
9538;BME280;4807;48.024;11.726;2023-03-04T00:54:49;95308.97;;;-0.07;86.26
9538;BME280;4807;48.024;11.726;2023-03-04T00:57:58;95310.59;;;0.05;86.35
9538;BME280;4807;48.024;11.726;2023-03-04T01:01:07;95312.81;;;0.10;86.61
9538;BME280;4807;48.024;11.726;2023-03-04T01:04:16;95315.19;;;-0.08;86.60
9538;BME280;4807;48.024;11.726;2023-03-04T01:07:24;95308.09;;;0.04;86.73
9538;BME280;4807;48.024;11.726;2023-03-04T01:10:33;95299.22;;;-0.05;87.25
9538;BME280;4807;48.024;11.726;2023-03-04T01:13:44;95297.06;;;0.00;87.02
9538;BME280;4807;48.024;11.726;2023-03-04T01:16:54;95297.88;;;0.00;87.74
9538;BME280;4807;48.024;11.726;2023-03-04T01:20:04;95294.66;;;0.18;86.21
9538;BME280;4807;48.024;11.726;2023-03-04T01:23:14;95297.28;;;0.38;85.45
9538;BME280;4807;48.024;11.726;2023-03-04T01:26:23;95290.56;;;0.25;86.94
9538;BME280;4807;48.024;11.726;2023-03-04T01:29:32;95292.81;;;0.29;87.10
9538;BME280;4807;48.024;11.726;2023-03-04T01:32:42;95289.47;;;0.27;87.13
9538;BME280;4807;48.024;11.726;2023-03-04T01:35:50;95279.88;;;0.37;88.10
9538;BME280;4807;48.024;11.726;2023-03-04T01:38:59;95283.28;;;0.59;86.99
9538;BME280;4807;48.024;11.726;2023-03-04T01:42:16;95283.44;;;0.67;87.53
9538;BME280;4807;48.024;11.726;2023-03-04T01:45:25;95275.63;;;0.76;87.19
9538;BME280;4807;48.024;11.726;2023-03-04T01:48:37;95271.47;;;0.74;87.01
9538;BME280;4807;48.024;11.726;2023-03-04T01:51:49;95277.88;;;1.00;86.44
9538;BME280;4807;48.024;11.726;2023-03-04T01:54:58;95273.75;;;1.07;86.23
9538;BME280;4807;48.024;11.726;2023-03-04T01:58:09;95265.19;;;0.96;86.83
9538;BME280;4807;48.024;11.726;2023-03-04T02:01:19;95261.31;;;0.81;87.36
9538;BME280;4807;48.024;11.726;2023-03-04T02:04:31;95250.50;;;0.74;87.21
9538;BME280;4807;48.024;11.726;2023-03-04T02:07:41;95251.38;;;0.84;87.68
9538;BME280;4807;48.024;11.726;2023-03-04T02:10:53;95250.25;;;0.77;87.22
9538;BME280;4807;48.024;11.726;2023-03-04T02:14:02;95254.13;;;0.92;87.28
9538;BME280;4807;48.024;11.726;2023-03-04T02:17:11;95246.97;;;0.94;87.70
9538;BME280;4807;48.024;11.726;2023-03-04T02:20:44;95248.47;;;0.87;87.99
9538;BME280;4807;48.024;11.726;2023-03-04T02:24:08;95243.41;;;0.95;87.70
9538;BME280;4807;48.024;11.726;2023-03-04T02:27:22;95234.81;;;0.93;87.79
9538;BME280;4807;48.024;11.726;2023-03-04T02:30:31;95237.19;;;0.96;88.04
9538;BME280;4807;48.024;11.726;2023-03-04T02:33:39;95234.81;;;0.93;88.16
9538;BME280;4807;48.024;11.726;2023-03-04T02:36:51;95234.69;;;0.95;88.01
9538;BME280;4807;48.024;11.726;2023-03-04T02:39:59;95228.50;;;0.96;88.13
9538;BME280;4807;48.024;11.726;2023-03-04T02:43:11;95234.25;;;0.90;87.82
9538;BME280;4807;48.024;11.726;2023-03-04T02:46:19;95232.63;;;0.89;87.09
9538;BME280;4807;48.024;11.726;2023-03-04T02:49:30;95229.31;;;0.96;87.54
9538;BME280;4807;48.024;11.726;2023-03-04T02:52:39;95229.31;;;0.87;87.04
9538;BME280;4807;48.024;11.726;2023-03-04T02:55:48;95229.81;;;0.71;87.92
9538;BME280;4807;48.024;11.726;2023-03-04T02:59:00;95225.75;;;0.57;87.89
9538;BME280;4807;48.024;11.726;2023-03-04T03:02:08;95221.72;;;0.44;87.69
9538;BME280;4807;48.024;11.726;2023-03-04T03:05:18;95225.00;;;0.36;87.94
9538;BME280;4807;48.024;11.726;2023-03-04T03:08:28;95222.69;;;0.43;87.48
9538;BME280;4807;48.024;11.726;2023-03-04T03:11:36;95228.41;;;0.27;88.50
9538;BME280;4807;48.024;11.726;2023-03-04T03:14:47;95225.50;;;0.20;87.27
9538;BME280;4807;48.024;11.726;2023-03-04T03:17:58;95231.00;;;0.17;88.00
9538;BME280;4807;48.024;11.726;2023-03-04T03:21:06;95230.88;;;0.19;88.00
9538;BME280;4807;48.024;11.726;2023-03-04T03:24:15;95225.22;;;0.14;88.27
9538;BME280;4807;48.024;11.726;2023-03-04T03:27:23;95225.41;;;0.01;87.72
9538;BME280;4807;48.024;11.726;2023-03-04T03:30:34;95222.75;;;-0.09;87.76
9538;BME280;4807;48.024;11.726;2023-03-04T03:33:46;95226.47;;;-0.11;87.79
9538;BME280;4807;48.024;11.726;2023-03-04T03:36:55;95224.56;;;0.00;87.55
9538;BME280;4807;48.024;11.726;2023-03-04T03:40:05;95230.28;;;-0.15;87.78
9538;BME280;4807;48.024;11.726;2023-03-04T03:43:13;95225.00;;;-0.25;88.22
9538;BME280;4807;48.024;11.726;2023-03-04T03:46:23;95232.50;;;-0.31;87.99
9538;BME280;4807;48.024;11.726;2023-03-04T03:49:31;95231.50;;;-0.40;87.94
9538;BME280;4807;48.024;11.726;2023-03-04T03:52:40;95229.47;;;-0.36;87.88
9538;BME280;4807;48.024;11.726;2023-03-04T03:55:48;95232.59;;;-0.43;88.60
9538;BME280;4807;48.024;11.726;2023-03-04T03:58:56;95235.03;;;-0.51;87.75
9538;BME280;4807;48.024;11.726;2023-03-04T04:02:05;95228.38;;;-0.55;88.22
9538;BME280;4807;48.024;11.726;2023-03-04T04:05:14;95229.50;;;-0.48;87.96
9538;BME280;4807;48.024;11.726;2023-03-04T04:08:22;95239.97;;;-0.48;88.02
9538;BME280;4807;48.024;11.726;2023-03-04T04:11:30;95239.97;;;-0.48;87.43
9538;BME280;4807;48.024;11.726;2023-03-04T04:14:39;95242.59;;;-0.68;87.89
9538;BME280;4807;48.024;11.726;2023-03-04T04:17:48;95238.81;;;-0.75;88.21
9538;BME280;4807;48.024;11.726;2023-03-04T04:20:56;95239.06;;;-0.79;87.90
9538;BME280;4807;48.024;11.726;2023-03-04T04:24:04;95247.91;;;-0.91;87.56
9538;BME280;4807;48.024;11.726;2023-03-04T04:27:13;95249.47;;;-0.99;88.23
9538;BME280;4807;48.024;11.726;2023-03-04T04:30:21;95235.50;;;-1.09;87.53
9538;BME280;4807;48.024;11.726;2023-03-04T04:33:31;95241.16;;;-1.04;87.52
9538;BME280;4807;48.024;11.726;2023-03-04T04:36:39;95247.84;;;-1.11;88.01
9538;BME280;4807;48.024;11.726;2023-03-04T04:39:47;95243.81;;;-1.16;87.51
9538;BME280;4807;48.024;11.726;2023-03-04T04:42:57;95238.34;;;-1.12;88.83
9538;BME280;4807;48.024;11.726;2023-03-04T04:46:07;95240.94;;;-1.01;87.88
9538;BME280;4807;48.024;11.726;2023-03-04T04:49:17;95239.53;;;-1.05;88.91
9538;BME280;4807;48.024;11.726;2023-03-04T04:52:25;95236.53;;;-1.01;89.25
9538;BME280;4807;48.024;11.726;2023-03-04T04:55:34;95238.97;;;-0.88;88.83
9538;BME280;4807;48.024;11.726;2023-03-04T04:58:42;95235.88;;;-0.82;88.95
9538;BME280;4807;48.024;11.726;2023-03-04T05:01:51;95230.69;;;-0.72;89.22
9538;BME280;4807;48.024;11.726;2023-03-04T05:05:00;95233.53;;;-0.64;88.75
9538;BME280;4807;48.024;11.726;2023-03-04T05:08:08;95237.81;;;-0.63;88.39
9538;BME280;4807;48.024;11.726;2023-03-04T05:11:18;95244.34;;;-0.58;89.04
9538;BME280;4807;48.024;11.726;2023-03-04T05:14:26;95231.75;;;-0.64;88.98
9538;BME280;4807;48.024;11.726;2023-03-04T05:17:34;95236.41;;;-0.67;88.66
9538;BME280;4807;48.024;11.726;2023-03-04T05:20:44;95236.00;;;-0.63;88.73
9538;BME280;4807;48.024;11.726;2023-03-04T05:23:52;95236.78;;;-0.72;88.86
9538;BME280;4807;48.024;11.726;2023-03-04T05:27:01;95236.53;;;-0.69;88.77
9538;BME280;4807;48.024;11.726;2023-03-04T05:30:11;95234.31;;;-0.73;89.81
9538;BME280;4807;48.024;11.726;2023-03-04T05:33:20;95234.75;;;-0.68;89.54
9538;BME280;4807;48.024;11.726;2023-03-04T05:36:30;95227.94;;;-0.60;88.89
9538;BME280;4807;48.024;11.726;2023-03-04T05:39:38;95225.38;;;-0.50;88.96
9538;BME280;4807;48.024;11.726;2023-03-04T05:42:46;95233.88;;;-0.58;88.65
9538;BME280;4807;48.024;11.726;2023-03-04T05:45:54;95236.53;;;-0.48;89.38
9538;BME280;4807;48.024;11.726;2023-03-04T05:49:02;95241.91;;;-0.50;89.07
9538;BME280;4807;48.024;11.726;2023-03-04T05:52:12;95241.25;;;-0.63;89.00
9538;BME280;4807;48.024;11.726;2023-03-04T05:55:20;95245.53;;;-0.62;89.48
9538;BME280;4807;48.024;11.726;2023-03-04T05:58:28;95249.72;;;-0.70;88.90
9538;BME280;4807;48.024;11.726;2023-03-04T06:01:36;95242.16;;;-0.53;89.84
9538;BME280;4807;48.024;11.726;2023-03-04T06:04:44;95250.00;;;-0.73;88.95
9538;BME280;4807;48.024;11.726;2023-03-04T06:07:54;95246.66;;;-0.75;90.13
9538;BME280;4807;48.024;11.726;2023-03-04T06:11:02;95250.56;;;-0.70;90.00
9538;BME280;4807;48.024;11.726;2023-03-04T06:14:11;95257.41;;;-0.58;90.07
9538;BME280;4807;48.024;11.726;2023-03-04T06:17:19;95258.59;;;-0.62;88.98
9538;BME280;4807;48.024;11.726;2023-03-04T06:20:30;95261.94;;;-0.60;89.19
9538;BME280;4807;48.024;11.726;2023-03-04T06:23:39;95260.50;;;-0.64;89.31
9538;BME280;4807;48.024;11.726;2023-03-04T06:26:48;95266.09;;;-0.57;89.96
9538;BME280;4807;48.024;11.726;2023-03-04T06:29:57;95270.22;;;-0.55;89.82
9538;BME280;4807;48.024;11.726;2023-03-04T06:33:05;95276.34;;;-0.45;89.04
9538;BME280;4807;48.024;11.726;2023-03-04T06:36:13;95276.13;;;-0.42;88.86
9538;BME280;4807;48.024;11.726;2023-03-04T06:39:23;95277.38;;;-0.36;89.16
9538;BME280;4807;48.024;11.726;2023-03-04T06:42:31;95274.00;;;-0.27;88.52
9538;BME280;4807;48.024;11.726;2023-03-04T06:45:39;95283.53;;;-0.26;89.46
9538;BME280;4807;48.024;11.726;2023-03-04T06:48:47;95285.19;;;-0.04;88.19
9538;BME280;4807;48.024;11.726;2023-03-04T06:51:56;95289.81;;;-0.08;88.55
9538;BME280;4807;48.024;11.726;2023-03-04T06:55:08;95290.78;;;0.12;88.67
9538;BME280;4807;48.024;11.726;2023-03-04T06:58:16;95290.19;;;0.29;87.66
9538;BME280;4807;48.024;11.726;2023-03-04T07:01:27;95298.59;;;0.33;87.82
9538;BME280;4807;48.024;11.726;2023-03-04T07:04:35;95295.59;;;0.37;87.09
9538;BME280;4807;48.024;11.726;2023-03-04T07:07:43;95295.16;;;0.63;86.74
9538;BME280;4807;48.024;11.726;2023-03-04T07:10:53;95290.34;;;0.68;85.64
9538;BME280;4807;48.024;11.726;2023-03-04T07:14:01;95289.19;;;0.91;85.77
9538;BME280;4807;48.024;11.726;2023-03-04T07:17:09;95292.25;;;1.06;86.14
9538;BME280;4807;48.024;11.726;2023-03-04T07:20:19;95292.16;;;1.17;82.91
9538;BME280;4807;48.024;11.726;2023-03-04T07:23:27;95292.88;;;1.29;82.59
9538;BME280;4807;48.024;11.726;2023-03-04T07:26:37;95293.69;;;1.58;83.87
9538;BME280;4807;48.024;11.726;2023-03-04T07:29:45;95305.31;;;1.94;84.39
9538;BME280;4807;48.024;11.726;2023-03-04T07:32:56;95302.00;;;1.92;80.88
9538;BME280;4807;48.024;11.726;2023-03-04T07:36:05;95305.88;;;1.78;80.58
9538;BME280;4807;48.024;11.726;2023-03-04T07:39:13;95303.66;;;1.83;80.91
9538;BME280;4807;48.024;11.726;2023-03-04T07:42:23;95309.16;;;2.00;80.17
9538;BME280;4807;48.024;11.726;2023-03-04T07:45:38;95316.28;;;2.36;82.33
9538;BME280;4807;48.024;11.726;2023-03-04T07:48:46;95308.06;;;2.58;81.29
9538;BME280;4807;48.024;11.726;2023-03-04T07:51:55;95317.06;;;2.56;78.78
9538;BME280;4807;48.024;11.726;2023-03-04T07:55:03;95318.47;;;2.50;78.11
9538;BME280;4807;48.024;11.726;2023-03-04T07:58:13;95318.13;;;2.73;77.55
9538;BME280;4807;48.024;11.726;2023-03-04T08:01:31;95319.31;;;2.88;78.04
9538;BME280;4807;48.024;11.726;2023-03-04T08:04:41;95317.47;;;2.98;77.94
9538;BME280;4807;48.024;11.726;2023-03-04T08:07:49;95317.72;;;3.04;77.37
9538;BME280;4807;48.024;11.726;2023-03-04T08:10:57;95316.47;;;3.26;75.88
9538;BME280;4807;48.024;11.726;2023-03-04T08:14:07;95325.78;;;3.48;76.00
9538;BME280;4807;48.024;11.726;2023-03-04T08:17:16;95321.72;;;3.54;74.44
9538;BME280;4807;48.024;11.726;2023-03-04T08:20:24;95328.94;;;3.52;74.18
9538;BME280;4807;48.024;11.726;2023-03-04T08:23:32;95330.31;;;3.56;74.91
9538;BME280;4807;48.024;11.726;2023-03-04T08:26:43;95328.25;;;3.50;74.37
9538;BME280;4807;48.024;11.726;2023-03-04T08:29:53;95319.53;;;3.67;73.17
9538;BME280;4807;48.024;11.726;2023-03-04T08:33:02;95327.06;;;3.62;72.34
9538;BME280;4807;48.024;11.726;2023-03-04T08:36:11;95329.50;;;3.73;72.50
9538;BME280;4807;48.024;11.726;2023-03-04T08:39:19;95330.91;;;3.85;72.42
9538;BME280;4807;48.024;11.726;2023-03-04T08:42:27;95340.91;;;3.64;72.09
9538;BME280;4807;48.024;11.726;2023-03-04T08:45:37;95331.63;;;3.42;73.32
9538;BME280;4807;48.024;11.726;2023-03-04T08:48:45;95330.78;;;3.41;73.57
9538;BME280;4807;48.024;11.726;2023-03-04T08:51:53;95335.47;;;3.48;73.45
9538;BME280;4807;48.024;11.726;2023-03-04T08:55:02;95338.34;;;3.54;73.04
9538;BME280;4807;48.024;11.726;2023-03-04T08:58:10;95328.19;;;3.77;72.25
9538;BME280;4807;48.024;11.726;2023-03-04T09:01:20;95320.00;;;3.80;71.71
9538;BME280;4807;48.024;11.726;2023-03-04T09:04:28;95328.19;;;3.77;71.05
9538;BME280;4807;48.024;11.726;2023-03-04T09:07:37;95331.88;;;3.84;71.76
9538;BME280;4807;48.024;11.726;2023-03-04T09:10:46;95326.47;;;4.03;70.13
9538;BME280;4807;48.024;11.726;2023-03-04T09:13:54;95324.88;;;4.10;70.86
9538;BME280;4807;48.024;11.726;2023-03-04T09:17:04;95327.28;;;3.68;71.23
9538;BME280;4807;48.024;11.726;2023-03-04T09:20:13;95325.31;;;4.06;71.15
9538;BME280;4807;48.024;11.726;2023-03-04T09:23:21;95321.94;;;4.13;70.31
9538;BME280;4807;48.024;11.726;2023-03-04T09:26:30;95322.66;;;4.23;71.40
9538;BME280;4807;48.024;11.726;2023-03-04T09:29:38;95317.53;;;4.40;69.88
9538;BME280;4807;48.024;11.726;2023-03-04T09:32:48;95307.88;;;4.31;69.27
9538;BME280;4807;48.024;11.726;2023-03-04T09:35:57;95305.91;;;4.50;68.73
9538;BME280;4807;48.024;11.726;2023-03-04T09:39:05;95303.44;;;4.31;69.37
9538;BME280;4807;48.024;11.726;2023-03-04T09:42:24;95307.72;;;4.50;70.92
9538;BME280;4807;48.024;11.726;2023-03-04T09:45:41;95304.91;;;4.51;70.13
9538;BME280;4807;48.024;11.726;2023-03-04T09:48:55;95302.56;;;4.74;69.14
9538;BME280;4807;48.024;11.726;2023-03-04T09:52:16;95301.34;;;4.60;68.53
9538;BME280;4807;48.024;11.726;2023-03-04T09:55:34;95299.94;;;4.22;69.72
9538;BME280;4807;48.024;11.726;2023-03-04T09:58:57;95304.97;;;4.59;69.19
9538;BME280;4807;48.024;11.726;2023-03-04T10:02:20;95301.91;;;4.72;69.82
9538;BME280;4807;48.024;11.726;2023-03-04T10:05:41;95294.88;;;5.23;67.81
9538;BME280;4807;48.024;11.726;2023-03-04T10:08:56;95296.91;;;5.37;66.19
9538;BME280;4807;48.024;11.726;2023-03-04T10:12:12;95290.53;;;5.06;66.57
9538;BME280;4807;48.024;11.726;2023-03-04T10:15:31;95283.66;;;5.21;66.61
9538;BME280;4807;48.024;11.726;2023-03-04T10:18:47;95280.00;;;5.14;68.33
9538;BME280;4807;48.024;11.726;2023-03-04T10:21:58;95280.28;;;5.53;66.89
9538;BME280;4807;48.024;11.726;2023-03-04T10:25:16;95277.19;;;5.65;64.70
9538;BME280;4807;48.024;11.726;2023-03-04T10:28:28;95277.84;;;5.67;64.20
9538;BME280;4807;48.024;11.726;2023-03-04T10:31:37;95269.41;;;5.64;64.68
9538;BME280;4807;48.024;11.726;2023-03-04T10:34:48;95264.97;;;5.72;65.46
9538;BME280;4807;48.024;11.726;2023-03-04T10:38:02;95274.75;;;6.04;64.37
9538;BME280;4807;48.024;11.726;2023-03-04T10:41:15;95266.50;;;6.07;63.83
9538;BME280;4807;48.024;11.726;2023-03-04T10:44:24;95266.66;;;6.38;62.66
9538;BME280;4807;48.024;11.726;2023-03-04T10:47:32;95262.16;;;6.55;61.01
9538;BME280;4807;48.024;11.726;2023-03-04T10:50:41;95263.13;;;6.62;60.88
9538;BME280;4807;48.024;11.726;2023-03-04T10:53:56;95262.66;;;6.42;59.58
9538;BME280;4807;48.024;11.726;2023-03-04T10:57:15;95259.84;;;6.44;59.47
9538;BME280;4807;48.024;11.726;2023-03-04T11:00:30;95254.09;;;6.32;60.70
9538;BME280;4807;48.024;11.726;2023-03-04T11:03:47;95252.72;;;6.61;61.50
9538;BME280;4807;48.024;11.726;2023-03-04T11:06:56;95243.06;;;6.76;59.30
9538;BME280;4807;48.024;11.726;2023-03-04T11:10:17;95244.22;;;6.73;59.51
9538;BME280;4807;48.024;11.726;2023-03-04T11:13:26;95246.63;;;6.52;61.94
9538;BME280;4807;48.024;11.726;2023-03-04T11:16:35;95227.25;;;6.60;60.37
9538;BME280;4807;48.024;11.726;2023-03-04T11:19:47;95234.59;;;6.97;60.86
9538;BME280;4807;48.024;11.726;2023-03-04T11:23:04;95237.19;;;7.05;58.98
9538;BME280;4807;48.024;11.726;2023-03-04T11:26:18;95229.63;;;6.94;60.54
9538;BME280;4807;48.024;11.726;2023-03-04T11:29:34;95227.22;;;6.68;58.06
9538;BME280;4807;48.024;11.726;2023-03-04T11:32:48;95230.28;;;6.48;60.03
9538;BME280;4807;48.024;11.726;2023-03-04T11:36:13;95216.56;;;6.37;59.98
9538;BME280;4807;48.024;11.726;2023-03-04T11:39:33;95218.75;;;6.09;59.31
9538;BME280;4807;48.024;11.726;2023-03-04T11:42:51;95223.00;;;6.26;61.90
9538;BME280;4807;48.024;11.726;2023-03-04T11:46:29;95223.88;;;6.10;60.00
9538;BME280;4807;48.024;11.726;2023-03-04T11:50:13;95221.75;;;5.90;60.74
9538;BME280;4807;48.024;11.726;2023-03-04T11:53:43;95218.41;;;6.28;64.11
9538;BME280;4807;48.024;11.726;2023-03-04T11:57:05;95221.00;;;6.53;59.85
9538;BME280;4807;48.024;11.726;2023-03-04T12:00:37;95221.91;;;6.04;59.71
9538;BME280;4807;48.024;11.726;2023-03-04T12:04:31;95215.28;;;6.00;61.17
9538;BME280;4807;48.024;11.726;2023-03-04T12:11:55;95208.47;;;6.30;61.22
9538;BME280;4807;48.024;11.726;2023-03-04T12:15:18;95198.34;;;6.42;62.17
9538;BME280;4807;48.024;11.726;2023-03-04T12:18:50;95192.78;;;6.21;59.90
9538;BME280;4807;48.024;11.726;2023-03-04T12:22:25;95190.41;;;6.50;60.98
9538;BME280;4807;48.024;11.726;2023-03-04T12:25:41;95192.19;;;6.58;61.64
9538;BME280;4807;48.024;11.726;2023-03-04T12:29:00;95178.72;;;6.28;59.03
9538;BME280;4807;48.024;11.726;2023-03-04T12:32:16;95175.91;;;6.30;58.83
9538;BME280;4807;48.024;11.726;2023-03-04T12:35:38;95177.06;;;6.27;59.34
9538;BME280;4807;48.024;11.726;2023-03-04T12:39:21;95172.56;;;6.44;59.68
9538;BME280;4807;48.024;11.726;2023-03-04T12:42:49;95165.94;;;6.56;58.02
9538;BME280;4807;48.024;11.726;2023-03-04T12:46:17;95158.13;;;6.63;58.38
9538;BME280;4807;48.024;11.726;2023-03-04T12:49:46;95146.28;;;6.81;58.97
9538;BME280;4807;48.024;11.726;2023-03-04T12:53:13;95162.94;;;6.59;60.11
9538;BME280;4807;48.024;11.726;2023-03-04T12:56:32;95157.81;;;6.58;59.19
9538;BME280;4807;48.024;11.726;2023-03-04T12:59:53;95146.13;;;6.83;58.96
9538;BME280;4807;48.024;11.726;2023-03-04T13:03:10;95133.78;;;6.67;59.59
9538;BME280;4807;48.024;11.726;2023-03-04T13:06:35;95145.53;;;6.73;59.74
9538;BME280;4807;48.024;11.726;2023-03-04T13:09:54;95139.09;;;6.98;59.87
9538;BME280;4807;48.024;11.726;2023-03-04T13:13:05;95134.25;;;7.33;58.68
9538;BME280;4807;48.024;11.726;2023-03-04T13:16:30;95126.81;;;7.05;61.31
9538;BME280;4807;48.024;11.726;2023-03-04T13:19:51;95120.03;;;6.80;57.80
9538;BME280;4807;48.024;11.726;2023-03-04T13:23:22;95117.53;;;7.09;60.11
9538;BME280;4807;48.024;11.726;2023-03-04T13:26:34;95130.91;;;6.85;58.35
9538;BME280;4807;48.024;11.726;2023-03-04T13:29:43;95113.94;;;6.71;59.87
9538;BME280;4807;48.024;11.726;2023-03-04T13:32:51;95110.56;;;6.85;59.99
9538;BME280;4807;48.024;11.726;2023-03-04T13:36:01;95112.66;;;7.21;60.50
9538;BME280;4807;48.024;11.726;2023-03-04T13:39:28;95104.81;;;7.05;59.04
9538;BME280;4807;48.024;11.726;2023-03-04T13:42:41;95099.72;;;6.72;57.76
9538;BME280;4807;48.024;11.726;2023-03-04T13:45:49;95102.84;;;6.37;58.37
9538;BME280;4807;48.024;11.726;2023-03-04T13:49:02;95109.69;;;6.23;60.14
9538;BME280;4807;48.024;11.726;2023-03-04T13:52:38;95099.28;;;6.22;59.90
9538;BME280;4807;48.024;11.726;2023-03-04T13:59:43;95096.66;;;6.53;61.00
9538;BME280;4807;48.024;11.726;2023-03-04T14:02:52;95096.00;;;6.50;59.95
9538;BME280;4807;48.024;11.726;2023-03-04T14:06:18;95083.53;;;6.67;59.30
9538;BME280;4807;48.024;11.726;2023-03-04T14:09:38;95088.22;;;6.49;59.79
9538;BME280;4807;48.024;11.726;2023-03-04T14:12:53;95089.75;;;6.43;60.91
9538;BME280;4807;48.024;11.726;2023-03-04T14:16:04;95087.19;;;6.27;62.35
9538;BME280;4807;48.024;11.726;2023-03-04T14:19:18;95085.88;;;6.23;63.03
9538;BME280;4807;48.024;11.726;2023-03-04T14:22:32;95088.50;;;6.31;61.21
9538;BME280;4807;48.024;11.726;2023-03-04T14:25:41;95093.88;;;6.07;64.01
9538;BME280;4807;48.024;11.726;2023-03-04T14:28:51;95088.78;;;5.97;63.38
9538;BME280;4807;48.024;11.726;2023-03-04T14:32:06;95081.94;;;6.11;63.51
9538;BME280;4807;48.024;11.726;2023-03-04T14:35:22;95090.25;;;6.08;62.96
9538;BME280;4807;48.024;11.726;2023-03-04T14:38:34;95080.69;;;5.99;64.27
9538;BME280;4807;48.024;11.726;2023-03-04T14:41:49;95078.53;;;5.94;63.96
9538;BME280;4807;48.024;11.726;2023-03-04T14:45:00;95077.69;;;5.86;63.30
9538;BME280;4807;48.024;11.726;2023-03-04T14:48:20;95086.47;;;5.70;64.96
9538;BME280;4807;48.024;11.726;2023-03-04T14:51:38;95076.59;;;5.64;64.84
9538;BME280;4807;48.024;11.726;2023-03-04T14:55:00;95071.28;;;5.72;64.72
9538;BME280;4807;48.024;11.726;2023-03-04T14:58:19;95072.81;;;5.58;65.08
9538;BME280;4807;48.024;11.726;2023-03-04T15:01:31;95080.06;;;5.64;65.34
9538;BME280;4807;48.024;11.726;2023-03-04T15:04:43;95083.19;;;5.52;66.14
9538;BME280;4807;48.024;11.726;2023-03-04T15:07:55;95075.59;;;5.57;66.61
9538;BME280;4807;48.024;11.726;2023-03-04T15:11:06;95080.22;;;5.47;66.30
9538;BME280;4807;48.024;11.726;2023-03-04T15:14:42;95079.09;;;5.17;66.57
9538;BME280;4807;48.024;11.726;2023-03-04T15:17:57;95081.06;;;5.07;66.48
9538;BME280;4807;48.024;11.726;2023-03-04T15:21:33;95074.91;;;4.74;68.09
9538;BME280;4807;48.024;11.726;2023-03-04T15:24:42;95079.03;;;4.68;69.14
9538;BME280;4807;48.024;11.726;2023-03-04T15:27:51;95077.69;;;4.64;67.94
9538;BME280;4807;48.024;11.726;2023-03-04T15:31:00;95080.16;;;4.66;67.92
9538;BME280;4807;48.024;11.726;2023-03-04T15:34:12;95077.06;;;4.20;67.88
9538;BME280;4807;48.024;11.726;2023-03-04T15:37:25;95084.78;;;4.13;69.01
9538;BME280;4807;48.024;11.726;2023-03-04T15:40:37;95082.53;;;3.93;69.41
9538;BME280;4807;48.024;11.726;2023-03-04T15:43:46;95079.66;;;4.04;69.80
9538;BME280;4807;48.024;11.726;2023-03-04T15:46:54;95080.81;;;4.09;69.52
9538;BME280;4807;48.024;11.726;2023-03-04T15:50:03;95091.69;;;4.14;68.48
9538;BME280;4807;48.024;11.726;2023-03-04T15:53:18;95085.91;;;4.03;68.36
9538;BME280;4807;48.024;11.726;2023-03-04T15:56:31;95089.84;;;3.73;69.13
9538;BME280;4807;48.024;11.726;2023-03-04T15:59:40;95092.09;;;3.42;70.57
9538;BME280;4807;48.024;11.726;2023-03-04T16:02:49;95094.25;;;3.03;70.27
9538;BME280;4807;48.024;11.726;2023-03-04T16:05:58;95091.50;;;2.87;71.33
9538;BME280;4807;48.024;11.726;2023-03-04T16:09:11;95104.56;;;2.79;71.72
9538;BME280;4807;48.024;11.726;2023-03-04T16:12:25;95104.19;;;2.74;71.55
9538;BME280;4807;48.024;11.726;2023-03-04T16:15:34;95105.31;;;2.71;70.83
9538;BME280;4807;48.024;11.726;2023-03-04T16:18:42;95107.56;;;2.66;71.42
9538;BME280;4807;48.024;11.726;2023-03-04T16:21:51;95117.59;;;2.53;70.98
9538;BME280;4807;48.024;11.726;2023-03-04T16:25:01;95118.75;;;2.50;71.02
9538;BME280;4807;48.024;11.726;2023-03-04T16:28:11;95129.31;;;2.41;71.66
9538;BME280;4807;48.024;11.726;2023-03-04T16:31:20;95125.88;;;2.30;71.34
9538;BME280;4807;48.024;11.726;2023-03-04T16:34:29;95128.19;;;2.16;71.21
9538;BME280;4807;48.024;11.726;2023-03-04T16:37:38;95125.22;;;2.01;71.75
9538;BME280;4807;48.024;11.726;2023-03-04T16:40:48;95125.97;;;1.84;71.75
9538;BME280;4807;48.024;11.726;2023-03-04T16:43:58;95124.06;;;1.67;73.00
9538;BME280;4807;48.024;11.726;2023-03-04T16:47:06;95135.03;;;1.52;72.50
9538;BME280;4807;48.024;11.726;2023-03-04T16:50:17;95133.00;;;1.37;73.21
9538;BME280;4807;48.024;11.726;2023-03-04T16:53:31;95131.59;;;1.23;73.29
9538;BME280;4807;48.024;11.726;2023-03-04T16:56:41;95139.50;;;1.13;73.22
9538;BME280;4807;48.024;11.726;2023-03-04T16:59:50;95140.84;;;0.98;73.75
9538;BME280;4807;48.024;11.726;2023-03-04T17:02:59;95147.63;;;0.91;74.40
9538;BME280;4807;48.024;11.726;2023-03-04T17:06:09;95144.19;;;0.81;74.15
9538;BME280;4807;48.024;11.726;2023-03-04T17:09:18;95146.38;;;0.76;74.46
9538;BME280;4807;48.024;11.726;2023-03-04T17:12:28;95155.34;;;0.83;74.62
9538;BME280;4807;48.024;11.726;2023-03-04T17:15:36;95153.28;;;0.77;75.16
9538;BME280;4807;48.024;11.726;2023-03-04T17:18:45;95166.66;;;0.84;74.75
9538;BME280;4807;48.024;11.726;2023-03-04T17:21:55;95175.09;;;0.97;74.36
9538;BME280;4807;48.024;11.726;2023-03-04T17:25:04;95180.75;;;1.02;73.93
9538;BME280;4807;48.024;11.726;2023-03-04T17:28:14;95183.25;;;1.13;73.51
9538;BME280;4807;48.024;11.726;2023-03-04T17:31:22;95183.38;;;1.11;72.87